Terminal Aerodrome Forecast
Issued by NWS Topeka, KS

Home | Current Version | Previous Version | Text Only | Print | Product List | Glossary On
Versions: 1 2 3 4 5 6 7 8 9 10 11 12 13
000
FTUS43 KTOP 061122
TAFTOP
TAF
KTOP 061122Z 0612/0712 17002KT P6SM SKC
     FM061600 20011G18KT P6SM SKC
     FM070100 19007KT P6SM SCT200=

USA.gov is the U.S. government's official web portal to all federal, state and local government web resources and services.